Flugplatz Neuburg Airport

Bericht für ETSN

vom 04.12. um 19:20 UTC

Wind 6 kt aus 260°

Sichtweite 10 km oder mehr

bedeckt in 8000 ft

Temperatur 0.0°C

Taupunkt -2.0°C

Luftfeuchtigkeit 86%

Luftdruck 990 hPa

ETSN 041920Z 26006KT 9999 OVC080 00/M02 Q0990 BLU
Keine Prognose (TAF) verfügbar.
Impressum